sensor_id;sensor_type;location;lat;lon;timestamp;pressure;altitude;pressure_sealevel;temperature;humidity
25759;BME280;13604;52.496;13.456;2023-11-19T00:00:47;101110.00;;;2.64;100.00
25759;BME280;13604;52.496;13.456;2023-11-19T00:03:12;101124.81;;;2.67;100.00
25759;BME280;13604;52.496;13.456;2023-11-19T00:05:38;101132.25;;;2.74;100.00
25759;BME280;13604;52.496;13.456;2023-11-19T00:08:04;101102.03;;;2.61;100.00
25759;BME280;13604;52.496;13.456;2023-11-19T00:10:31;101103.97;;;2.74;100.00
25759;BME280;13604;52.496;13.456;2023-11-19T00:12:56;101092.00;;;2.74;100.00
25759;BME280;13604;52.496;13.456;2023-11-19T00:15:22;101084.69;;;2.69;100.00
25759;BME280;13604;52.496;13.456;2023-11-19T00:17:49;101072.72;;;2.69;100.00
25759;BME280;13604;52.496;13.456;2023-11-19T00:20:16;101075.28;;;2.69;100.00
25759;BME280;13604;52.496;13.456;2023-11-19T00:22:42;101073.09;;;2.74;100.00
25759;BME280;13604;52.496;13.456;2023-11-19T00:25:08;101066.41;;;2.76;100.00
25759;BME280;13604;52.496;13.456;2023-11-19T00:27:33;101055.50;;;2.68;100.00
25759;BME280;13604;52.496;13.456;2023-11-19T00:29:58;101060.66;;;2.68;100.00
25759;BME280;13604;52.496;13.456;2023-11-19T00:32:24;101058.69;;;2.76;100.00
25759;BME280;13604;52.496;13.456;2023-11-19T00:34:49;101062.16;;;2.76;100.00
25759;BME280;13604;52.496;13.456;2023-11-19T00:37:15;101052.78;;;2.77;100.00
25759;BME280;13604;52.496;13.456;2023-11-19T00:39:42;101046.44;;;2.84;100.00
25759;BME280;13604;52.496;13.456;2023-11-19T00:42:07;101036.69;;;2.80;100.00
25759;BME280;13604;52.496;13.456;2023-11-19T00:44:32;101033.47;;;2.82;100.00
25759;BME280;13604;52.496;13.456;2023-11-19T00:46:58;101020.47;;;2.81;100.00
25759;BME280;13604;52.496;13.456;2023-11-19T00:49:24;101003.16;;;2.78;100.00
25759;BME280;13604;52.496;13.456;2023-11-19T00:51:50;101005.03;;;2.81;100.00
25759;BME280;13604;52.496;13.456;2023-11-19T00:54:15;101002.84;;;2.85;100.00
25759;BME280;13604;52.496;13.456;2023-11-19T00:56:40;101006.19;;;2.84;100.00
25759;BME280;13604;52.496;13.456;2023-11-19T00:59:05;100976.38;;;2.76;100.00
25759;BME280;13604;52.496;13.456;2023-11-19T01:01:31;100971.59;;;2.81;100.00
25759;BME280;13604;52.496;13.456;2023-11-19T01:03:56;100979.81;;;2.87;100.00
25759;BME280;13604;52.496;13.456;2023-11-19T01:06:31;100957.56;;;2.87;100.00
25759;BME280;13604;52.496;13.456;2023-11-19T01:08:57;100956.00;;;2.89;100.00
25759;BME280;13604;52.496;13.456;2023-11-19T01:11:23;100956.78;;;2.88;100.00
25759;BME280;13604;52.496;13.456;2023-11-19T01:13:48;100946.91;;;2.83;100.00
25759;BME280;13604;52.496;13.456;2023-11-19T01:16:13;100932.50;;;2.85;100.00
25759;BME280;13604;52.496;13.456;2023-11-19T01:18:39;100895.31;;;2.81;100.00
25759;BME280;13604;52.496;13.456;2023-11-19T01:21:05;100892.47;;;2.88;100.00
25759;BME280;13604;52.496;13.456;2023-11-19T01:23:30;100874.75;;;2.81;100.00
25759;BME280;13604;52.496;13.456;2023-11-19T01:25:55;100878.41;;;2.95;100.00
25759;BME280;13604;52.496;13.456;2023-11-19T01:28:21;100883.13;;;3.01;100.00
25759;BME280;13604;52.496;13.456;2023-11-19T01:30:46;100868.88;;;2.94;100.00
25759;BME280;13604;52.496;13.456;2023-11-19T01:33:11;100864.31;;;2.90;100.00
25759;BME280;13604;52.496;13.456;2023-11-19T01:35:37;100885.16;;;3.05;100.00
25759;BME280;13604;52.496;13.456;2023-11-19T01:38:02;100872.94;;;3.02;100.00
25759;BME280;13604;52.496;13.456;2023-11-19T01:40:27;100859.72;;;2.98;100.00
25759;BME280;13604;52.496;13.456;2023-11-19T01:42:53;100867.66;;;3.11;100.00
25759;BME280;13604;52.496;13.456;2023-11-19T01:45:24;100848.91;;;3.02;100.00
25759;BME280;13604;52.496;13.456;2023-11-19T01:47:51;100841.44;;;3.05;100.00
25759;BME280;13604;52.496;13.456;2023-11-19T01:50:17;100815.81;;;3.06;100.00
25759;BME280;13604;52.496;13.456;2023-11-19T01:52:42;100818.41;;;3.18;100.00
25759;BME280;13604;52.496;13.456;2023-11-19T01:55:08;100808.00;;;3.17;100.00
25759;BME280;13604;52.496;13.456;2023-11-19T01:57:35;100810.47;;;3.15;100.00
25759;BME280;13604;52.496;13.456;2023-11-19T02:00:02;100800.63;;;3.09;100.00
25759;BME280;13604;52.496;13.456;2023-11-19T02:02:28;100793.66;;;3.08;100.00
25759;BME280;13604;52.496;13.456;2023-11-19T02:04:54;100795.78;;;3.14;100.00
25759;BME280;13604;52.496;13.456;2023-11-19T02:07:21;100791.75;;;3.06;100.00
25759;BME280;13604;52.496;13.456;2023-11-19T02:09:46;100794.56;;;3.09;100.00
25759;BME280;13604;52.496;13.456;2023-11-19T02:12:12;100777.22;;;3.06;100.00
25759;BME280;13604;52.496;13.456;2023-11-19T02:14:37;100765.13;;;3.05;100.00
25759;BME280;13604;52.496;13.456;2023-11-19T02:17:03;100722.50;;;2.97;100.00
25759;BME280;13604;52.496;13.456;2023-11-19T02:19:28;100726.75;;;3.08;100.00
25759;BME280;13604;52.496;13.456;2023-11-19T02:21:54;100709.84;;;3.00;100.00
25759;BME280;13604;52.496;13.456;2023-11-19T02:24:22;100684.34;;;2.91;100.00
25759;BME280;13604;52.496;13.456;2023-11-19T02:26:57;100709.63;;;2.97;100.00
25759;BME280;13604;52.496;13.456;2023-11-19T02:29:24;100710.63;;;2.99;100.00
25759;BME280;13604;52.496;13.456;2023-11-19T02:31:49;100702.91;;;2.99;100.00
25759;BME280;13604;52.496;13.456;2023-11-19T02:34:15;100700.16;;;3.08;100.00
25759;BME280;13604;52.496;13.456;2023-11-19T02:36:41;100693.66;;;3.13;100.00
25759;BME280;13604;52.496;13.456;2023-11-19T02:39:08;100667.69;;;2.98;100.00
25759;BME280;13604;52.496;13.456;2023-11-19T02:41:36;100690.41;;;3.16;100.00
25759;BME280;13604;52.496;13.456;2023-11-19T02:44:01;100666.47;;;3.17;100.00
25759;BME280;13604;52.496;13.456;2023-11-19T02:46:26;100668.38;;;3.19;100.00
25759;BME280;13604;52.496;13.456;2023-11-19T02:48:52;100675.31;;;3.20;100.00
25759;BME280;13604;52.496;13.456;2023-11-19T02:51:17;100654.47;;;3.17;100.00
25759;BME280;13604;52.496;13.456;2023-11-19T02:53:43;100674.19;;;3.28;100.00
25759;BME280;13604;52.496;13.456;2023-11-19T02:56:09;100654.50;;;3.29;100.00
25759;BME280;13604;52.496;13.456;2023-11-19T02:58:45;100619.81;;;3.12;100.00
25759;BME280;13604;52.496;13.456;2023-11-19T03:01:11;100606.63;;;3.19;100.00
25759;BME280;13604;52.496;13.456;2023-11-19T03:03:48;100610.75;;;3.29;100.00
25759;BME280;13604;52.496;13.456;2023-11-19T03:06:19;100617.13;;;3.34;100.00
25759;BME280;13604;52.496;13.456;2023-11-19T03:08:44;100600.22;;;3.38;100.00
25759;BME280;13604;52.496;13.456;2023-11-19T03:11:09;100601.97;;;3.39;100.00
25759;BME280;13604;52.496;13.456;2023-11-19T03:13:35;100570.78;;;3.22;100.00
25759;BME280;13604;52.496;13.456;2023-11-19T03:16:00;100570.34;;;3.28;100.00
25759;BME280;13604;52.496;13.456;2023-11-19T03:18:25;100612.72;;;3.45;100.00
25759;BME280;13604;52.496;13.456;2023-11-19T03:20:52;100612.84;;;3.46;100.00
25759;BME280;13604;52.496;13.456;2023-11-19T03:23:17;100593.25;;;3.37;100.00
25759;BME280;13604;52.496;13.456;2023-11-19T03:25:42;100607.91;;;3.49;100.00
25759;BME280;13604;52.496;13.456;2023-11-19T03:28:08;100608.69;;;3.48;100.00
25759;BME280;13604;52.496;13.456;2023-11-19T03:30:34;100605.91;;;3.45;100.00
25759;BME280;13604;52.496;13.456;2023-11-19T03:32:59;100618.22;;;3.49;100.00
25759;BME280;13604;52.496;13.456;2023-11-19T03:35:27;100615.53;;;3.48;100.00
25759;BME280;13604;52.496;13.456;2023-11-19T03:37:53;100600.66;;;3.44;100.00
25759;BME280;13604;52.496;13.456;2023-11-19T03:40:18;100590.78;;;3.38;100.00
25759;BME280;13604;52.496;13.456;2023-11-19T03:42:45;100570.69;;;3.21;100.00
25759;BME280;13604;52.496;13.456;2023-11-19T03:45:10;100554.13;;;3.17;100.00
25759;BME280;13604;52.496;13.456;2023-11-19T03:47:35;100517.16;;;2.91;100.00
25759;BME280;13604;52.496;13.456;2023-11-19T03:50:01;100549.47;;;3.00;100.00
25759;BME280;13604;52.496;13.456;2023-11-19T03:52:27;100554.41;;;2.85;100.00
25759;BME280;13604;52.496;13.456;2023-11-19T03:54:52;100538.94;;;2.73;100.00
25759;BME280;13604;52.496;13.456;2023-11-19T03:57:18;100529.56;;;2.62;100.00
25759;BME280;13604;52.496;13.456;2023-11-19T03:59:43;100537.81;;;2.69;100.00
25759;BME280;13604;52.496;13.456;2023-11-19T04:02:09;100528.88;;;2.64;100.00
25759;BME280;13604;52.496;13.456;2023-11-19T04:04:35;100508.19;;;2.63;100.00
25759;BME280;13604;52.496;13.456;2023-11-19T04:07:01;100489.19;;;2.61;100.00
25759;BME280;13604;52.496;13.456;2023-11-19T04:09:27;100465.16;;;2.48;100.00
25759;BME280;13604;52.496;13.456;2023-11-19T04:11:53;100487.53;;;2.61;100.00
25759;BME280;13604;52.496;13.456;2023-11-19T04:14:18;100459.59;;;2.54;100.00
25759;BME280;13604;52.496;13.456;2023-11-19T04:16:44;100462.81;;;2.51;100.00
25759;BME280;13604;52.496;13.456;2023-11-19T04:19:10;100424.97;;;2.37;100.00
25759;BME280;13604;52.496;13.456;2023-11-19T04:21:36;100476.09;;;2.69;100.00
25759;BME280;13604;52.496;13.456;2023-11-19T04:24:01;100426.84;;;2.39;100.00
25759;BME280;13604;52.496;13.456;2023-11-19T04:26:26;100422.81;;;2.43;100.00
25759;BME280;13604;52.496;13.456;2023-11-19T04:28:52;100436.13;;;2.49;100.00
25759;BME280;13604;52.496;13.456;2023-11-19T04:31:17;100424.72;;;2.46;100.00
25759;BME280;13604;52.496;13.456;2023-11-19T04:33:42;100443.41;;;2.55;100.00
25759;BME280;13604;52.496;13.456;2023-11-19T04:36:09;100414.22;;;2.43;100.00
25759;BME280;13604;52.496;13.456;2023-11-19T04:38:34;100435.75;;;2.56;100.00
25759;BME280;13604;52.496;13.456;2023-11-19T04:41:00;100440.81;;;2.55;100.00
25759;BME280;13604;52.496;13.456;2023-11-19T04:43:25;100416.13;;;2.45;100.00
25759;BME280;13604;52.496;13.456;2023-11-19T04:45:50;100433.88;;;2.54;100.00
25759;BME280;13604;52.496;13.456;2023-11-19T04:48:16;100434.66;;;2.53;100.00
25759;BME280;13604;52.496;13.456;2023-11-19T04:50:41;100428.28;;;2.48;100.00
25759;BME280;13604;52.496;13.456;2023-11-19T04:53:06;100426.28;;;2.55;100.00
25759;BME280;13604;52.496;13.456;2023-11-19T04:55:32;100426.28;;;2.55;100.00
25759;BME280;13604;52.496;13.456;2023-11-19T04:57:57;100422.81;;;2.55;100.00
25759;BME280;13604;52.496;13.456;2023-11-19T05:00:22;100408.84;;;2.51;100.00
25759;BME280;13604;52.496;13.456;2023-11-19T05:02:48;100387.16;;;2.48;100.00
25759;BME280;13604;52.496;13.456;2023-11-19T05:05:15;100390.72;;;2.50;100.00
25759;BME280;13604;52.496;13.456;2023-11-19T05:07:40;100387.59;;;2.54;100.00
25759;BME280;13604;52.496;13.456;2023-11-19T05:10:06;100370.59;;;2.56;100.00
25759;BME280;13604;52.496;13.456;2023-11-19T05:12:32;100378.66;;;2.61;100.00
25759;BME280;13604;52.496;13.456;2023-11-19T05:14:57;100351.94;;;2.58;100.00
25759;BME280;13604;52.496;13.456;2023-11-19T05:17:23;100362.63;;;2.65;100.00
25759;BME280;13604;52.496;13.456;2023-11-19T05:19:48;100331.59;;;2.50;100.00
25759;BME280;13604;52.496;13.456;2023-11-19T05:22:14;100316.78;;;2.46;100.00
25759;BME280;13604;52.496;13.456;2023-11-19T05:24:39;100340.97;;;2.61;100.00
25759;BME280;13604;52.496;13.456;2023-11-19T05:27:05;100324.44;;;2.57;100.00
25759;BME280;13604;52.496;13.456;2023-11-19T05:29:32;100316.19;;;2.50;100.00
25759;BME280;13604;52.496;13.456;2023-11-19T05:31:57;100309.50;;;2.52;100.00
25759;BME280;13604;52.496;13.456;2023-11-19T05:34:22;100294.63;;;2.48;100.00
25759;BME280;13604;52.496;13.456;2023-11-19T05:36:47;100318.84;;;2.63;100.00
25759;BME280;13604;52.496;13.456;2023-11-19T05:39:13;100305.78;;;2.60;100.00
25759;BME280;13604;52.496;13.456;2023-11-19T05:41:38;100310.13;;;2.61;100.00
25759;BME280;13604;52.496;13.456;2023-11-19T05:44:04;100314.38;;;2.61;100.00
25759;BME280;13604;52.496;13.456;2023-11-19T05:46:29;100304.19;;;2.62;100.00
25759;BME280;13604;52.496;13.456;2023-11-19T05:48:54;100277.19;;;2.55;100.00
25759;BME280;13604;52.496;13.456;2023-11-19T05:51:20;100302.28;;;2.71;100.00
25759;BME280;13604;52.496;13.456;2023-11-19T05:53:45;100279.91;;;2.70;100.00
25759;BME280;13604;52.496;13.456;2023-11-19T05:56:15;100272.31;;;2.72;100.00
25759;BME280;13604;52.496;13.456;2023-11-19T05:58:41;100281.13;;;2.75;100.00
25759;BME280;13604;52.496;13.456;2023-11-19T06:01:06;100271.50;;;2.73;100.00
25759;BME280;13604;52.496;13.456;2023-11-19T06:03:32;100240.59;;;2.60;100.00
25759;BME280;13604;52.496;13.456;2023-11-19T06:05:58;100250.66;;;2.68;100.00
25759;BME280;13604;52.496;13.456;2023-11-19T06:08:23;100265.03;;;2.78;100.00
25759;BME280;13604;52.496;13.456;2023-11-19T06:10:49;100252.06;;;2.76;100.00
25759;BME280;13604;52.496;13.456;2023-11-19T06:13:16;100244.47;;;2.66;100.00
25759;BME280;13604;52.496;13.456;2023-11-19T06:15:42;100243.81;;;2.69;100.00
25759;BME280;13604;52.496;13.456;2023-11-19T06:18:08;100257.41;;;2.80;100.00
25759;BME280;13604;52.496;13.456;2023-11-19T06:20:33;100230.75;;;2.66;100.00
25759;BME280;13604;52.496;13.456;2023-11-19T06:22:59;100249.78;;;2.81;100.00
25759;BME280;13604;52.496;13.456;2023-11-19T06:25:25;100235.25;;;2.82;100.00
25759;BME280;13604;52.496;13.456;2023-11-19T06:27:51;100204.56;;;2.71;100.00
25759;BME280;13604;52.496;13.456;2023-11-19T06:30:17;100219.13;;;2.84;100.00
25759;BME280;13604;52.496;13.456;2023-11-19T06:32:43;100220.16;;;2.86;100.00
25759;BME280;13604;52.496;13.456;2023-11-19T06:35:08;100212.00;;;2.80;100.00
25759;BME280;13604;52.496;13.456;2023-11-19T06:37:34;100219.53;;;2.90;100.00
25759;BME280;13604;52.496;13.456;2023-11-19T06:39:59;100216.97;;;2.90;100.00
25759;BME280;13604;52.496;13.456;2023-11-19T06:42:25;100213.09;;;2.84;100.00
25759;BME280;13604;52.496;13.456;2023-11-19T06:44:50;100211.63;;;2.87;100.00
25759;BME280;13604;52.496;13.456;2023-11-19T06:47:16;100179.56;;;2.82;100.00
25759;BME280;13604;52.496;13.456;2023-11-19T06:49:44;100173.63;;;2.83;100.00
25759;BME280;13604;52.496;13.456;2023-11-19T06:52:09;100189.47;;;2.89;100.00
25759;BME280;13604;52.496;13.456;2023-11-19T06:54:34;100208.97;;;2.99;100.00
25759;BME280;13604;52.496;13.456;2023-11-19T06:56:59;100202.16;;;3.00;100.00
25759;BME280;13604;52.496;13.456;2023-11-19T06:59:25;100195.03;;;2.95;100.00
25759;BME280;13604;52.496;13.456;2023-11-19T07:01:50;100186.63;;;2.98;100.00
25759;BME280;13604;52.496;13.456;2023-11-19T07:04:15;100200.69;;;3.03;100.00
25759;BME280;13604;52.496;13.456;2023-11-19T07:06:41;100189.91;;;3.09;100.00
25759;BME280;13604;52.496;13.456;2023-11-19T07:09:06;100183.44;;;3.02;100.00
25759;BME280;13604;52.496;13.456;2023-11-19T07:11:36;100180.41;;;3.08;100.00
25759;BME280;13604;52.496;13.456;2023-11-19T07:14:02;100189.13;;;3.10;100.00
25759;BME280;13604;52.496;13.456;2023-11-19T07:16:28;100200.38;;;3.12;100.00
25759;BME280;13604;52.496;13.456;2023-11-19T07:18:53;100203.88;;;3.12;100.00
25759;BME280;13604;52.496;13.456;2023-11-19T07:21:19;100200.50;;;3.13;100.00
25759;BME280;13604;52.496;13.456;2023-11-19T07:23:44;100210.13;;;3.16;100.00
25759;BME280;13604;52.496;13.456;2023-11-19T07:26:10;100184.47;;;3.04;100.00
25759;BME280;13604;52.496;13.456;2023-11-19T07:28:35;100203.69;;;3.23;100.00
25759;BME280;13604;52.496;13.456;2023-11-19T07:31:01;100188.63;;;3.16;100.00
25759;BME280;13604;52.496;13.456;2023-11-19T07:33:27;100180.31;;;3.20;100.00
25759;BME280;13604;52.496;13.456;2023-11-19T07:35:52;100189.31;;;3.26;100.00
25759;BME280;13604;52.496;13.456;2023-11-19T07:38:17;100180.84;;;3.27;100.00
25759;BME280;13604;52.496;13.456;2023-11-19T07:40:43;100188.16;;;3.35;100.00
25759;BME280;13604;52.496;13.456;2023-11-19T07:43:08;100168.84;;;3.28;100.00
25759;BME280;13604;52.496;13.456;2023-11-19T07:45:33;100177.75;;;3.33;100.00
25759;BME280;13604;52.496;13.456;2023-11-19T07:47:59;100158.53;;;3.28;100.00
25759;BME280;13604;52.496;13.456;2023-11-19T07:50:26;100186.84;;;3.41;100.00
25759;BME280;13604;52.496;13.456;2023-11-19T07:52:51;100184.50;;;3.44;100.00
25759;BME280;13604;52.496;13.456;2023-11-19T07:55:17;100155.75;;;3.38;100.00
25759;BME280;13604;52.496;13.456;2023-11-19T07:57:42;100178.81;;;3.50;100.00
25759;BME280;13604;52.496;13.456;2023-11-19T08:00:08;100182.09;;;3.61;100.00
25759;BME280;13604;52.496;13.456;2023-11-19T08:02:37;100189.94;;;3.62;100.00
25759;BME280;13604;52.496;13.456;2023-11-19T08:05:02;100142.22;;;3.41;100.00
25759;BME280;13604;52.496;13.456;2023-11-19T08:07:28;100175.78;;;3.56;100.00
25759;BME280;13604;52.496;13.456;2023-11-19T08:09:53;100167.84;;;3.53;100.00
25759;BME280;13604;52.496;13.456;2023-11-19T08:12:18;100173.84;;;3.66;100.00
25759;BME280;13604;52.496;13.456;2023-11-19T08:14:44;100168.03;;;3.69;100.00
25759;BME280;13604;52.496;13.456;2023-11-19T08:17:09;100168.22;;;3.72;100.00
25759;BME280;13604;52.496;13.456;2023-11-19T08:19:34;100168.69;;;3.80;100.00
25759;BME280;13604;52.496;13.456;2023-11-19T08:22:00;100177.97;;;3.91;100.00
25759;BME280;13604;52.496;13.456;2023-11-19T08:24:25;100180.16;;;3.98;100.00
25759;BME280;13604;52.496;13.456;2023-11-19T08:26:50;100166.38;;;3.98;100.00
25759;BME280;13604;52.496;13.456;2023-11-19T08:29:16;100156.25;;;4.01;100.00
25759;BME280;13604;52.496;13.456;2023-11-19T08:31:42;100145.34;;;4.05;100.00
25759;BME280;13604;52.496;13.456;2023-11-19T08:34:07;100164.22;;;4.19;100.00
25759;BME280;13604;52.496;13.456;2023-11-19T08:36:34;100161.84;;;4.22;100.00
25759;BME280;13604;52.496;13.456;2023-11-19T08:38:59;100155.38;;;4.29;100.00
25759;BME280;13604;52.496;13.456;2023-11-19T08:41:24;100149.97;;;4.39;100.00
25759;BME280;13604;52.496;13.456;2023-11-19T08:43:50;100135.31;;;4.38;100.00
25759;BME280;13604;52.496;13.456;2023-11-19T08:46:16;100128.91;;;4.31;100.00
25759;BME280;13604;52.496;13.456;2023-11-19T08:48:42;100132.19;;;4.43;100.00
25759;BME280;13604;52.496;13.456;2023-11-19T08:51:07;100141.28;;;4.52;100.00
25759;BME280;13604;52.496;13.456;2023-11-19T08:53:32;100119.00;;;4.52;100.00
25759;BME280;13604;52.496;13.456;2023-11-19T08:55:58;100127.06;;;4.73;100.00
25759;BME280;13604;52.496;13.456;2023-11-19T08:58:23;100146.47;;;5.11;100.00
25759;BME280;13604;52.496;13.456;2023-11-19T09:00:48;100141.75;;;5.04;100.00
25759;BME280;13604;52.496;13.456;2023-11-19T09:03:13;100128.41;;;4.96;100.00
25759;BME280;13604;52.496;13.456;2023-11-19T09:05:39;100137.16;;;4.98;100.00
25759;BME280;13604;52.496;13.456;2023-11-19T09:08:04;100128.69;;;4.86;100.00
25759;BME280;13604;52.496;13.456;2023-11-19T09:10:30;100114.16;;;4.88;100.00
25759;BME280;13604;52.496;13.456;2023-11-19T09:12:55;100126.75;;;4.97;100.00
25759;BME280;13604;52.496;13.456;2023-11-19T09:15:20;100146.31;;;5.23;100.00
25759;BME280;13604;52.496;13.456;2023-11-19T09:17:46;100123.31;;;5.13;100.00
25759;BME280;13604;52.496;13.456;2023-11-19T09:20:11;100152.13;;;5.35;100.00
25759;BME280;13604;52.496;13.456;2023-11-19T09:22:40;100147.81;;;5.34;100.00
25759;BME280;13604;52.496;13.456;2023-11-19T09:25:05;100144.28;;;5.49;100.00
25759;BME280;13604;52.496;13.456;2023-11-19T09:27:30;100142.06;;;5.71;100.00
25759;BME280;13604;52.496;13.456;2023-11-19T09:29:56;100150.88;;;6.06;100.00
25759;BME280;13604;52.496;13.456;2023-11-19T09:32:23;100135.22;;;6.36;100.00
25759;BME280;13604;52.496;13.456;2023-11-19T09:34:48;100140.03;;;6.79;100.00
25759;BME280;13604;52.496;13.456;2023-11-19T09:37:14;100125.59;;;6.85;100.00
25759;BME280;13604;52.496;13.456;2023-11-19T09:39:39;100110.25;;;6.88;100.00
25759;BME280;13604;52.496;13.456;2023-11-19T09:42:08;100132.34;;;7.17;100.00
25759;BME280;13604;52.496;13.456;2023-11-19T09:44:33;100134.06;;;7.16;100.00
25759;BME280;13604;52.496;13.456;2023-11-19T09:46:59;100110.91;;;7.02;100.00
25759;BME280;13604;52.496;13.456;2023-11-19T09:49:26;100110.84;;;7.18;100.00
25759;BME280;13604;52.496;13.456;2023-11-19T09:51:51;100117.25;;;8.39;100.00
25759;BME280;13604;52.496;13.456;2023-11-19T09:54:17;100121.22;;;9.33;100.00
25759;BME280;13604;52.496;13.456;2023-11-19T09:56:43;100117.91;;;9.37;100.00
25759;BME280;13604;52.496;13.456;2023-11-19T09:59:08;100097.03;;;10.27;100.00
25759;BME280;13604;52.496;13.456;2023-11-19T10:01:36;100104.59;;;10.20;100.00
25759;BME280;13604;52.496;13.456;2023-11-19T10:04:02;100099.41;;;9.97;100.00
25759;BME280;13604;52.496;13.456;2023-11-19T10:06:27;100104.63;;;9.29;100.00
25759;BME280;13604;52.496;13.456;2023-11-19T10:08:52;100117.63;;;9.08;100.00
25759;BME280;13604;52.496;13.456;2023-11-19T10:11:18;100109.63;;;9.03;100.00
25759;BME280;13604;52.496;13.456;2023-11-19T10:13:43;100118.03;;;8.98;100.00
25759;BME280;13604;52.496;13.456;2023-11-19T10:16:12;100082.59;;;8.77;100.00
25759;BME280;13604;52.496;13.456;2023-11-19T10:18:38;100112.22;;;9.03;100.00
25759;BME280;13604;52.496;13.456;2023-11-19T10:21:07;100109.66;;;9.70;100.00
25759;BME280;13604;52.496;13.456;2023-11-19T10:23:52;100096.09;;;10.01;100.00
25759;BME280;13604;52.496;13.456;2023-11-19T10:26:19;100128.06;;;10.95;100.00
25759;BME280;13604;52.496;13.456;2023-11-19T10:28:46;100109.78;;;10.44;100.00
25759;BME280;13604;52.496;13.456;2023-11-19T10:31:15;100106.97;;;10.13;100.00
25759;BME280;13604;52.496;13.456;2023-11-19T10:33:41;100100.34;;;9.99;100.00
25759;BME280;13604;52.496;13.456;2023-11-19T10:36:08;100075.16;;;9.74;100.00
25759;BME280;13604;52.496;13.456;2023-11-19T10:38:34;100076.81;;;10.43;100.00
25759;BME280;13604;52.496;13.456;2023-11-19T10:41:00;100076.41;;;11.94;100.00
25759;BME280;13604;52.496;13.456;2023-11-19T10:43:25;100081.41;;;12.48;100.00
25759;BME280;13604;52.496;13.456;2023-11-19T10:45:51;100084.03;;;13.55;100.00
25759;BME280;13604;52.496;13.456;2023-11-19T10:48:17;100085.16;;;14.07;100.00
25759;BME280;13604;52.496;13.456;2023-11-19T10:50:44;100088.66;;;13.67;100.00
25759;BME280;13604;52.496;13.456;2023-11-19T10:53:11;100066.34;;;13.06;100.00
25759;BME280;13604;52.496;13.456;2023-11-19T10:55:40;100070.94;;;12.47;100.00
25759;BME280;13604;52.496;13.456;2023-11-19T10:58:10;100072.97;;;11.95;100.00
25759;BME280;13604;52.496;13.456;2023-11-19T11:00:45;100075.19;;;11.54;100.00
25759;BME280;13604;52.496;13.456;2023-11-19T11:03:20;100072.34;;;11.75;100.00
25759;BME280;13604;52.496;13.456;2023-11-19T11:05:46;100070.47;;;11.71;100.00
25759;BME280;13604;52.496;13.456;2023-11-19T11:08:13;100063.97;;;11.00;100.00
25759;BME280;13604;52.496;13.456;2023-11-19T11:10:48;100060.66;;;10.79;100.00
25759;BME280;13604;52.496;13.456;2023-11-19T11:13:16;100070.41;;;11.12;100.00
25759;BME280;13604;52.496;13.456;2023-11-19T11:15:42;100065.75;;;11.29;100.00
25759;BME280;13604;52.496;13.456;2023-11-19T11:18:09;100050.16;;;11.30;100.00
25759;BME280;13604;52.496;13.456;2023-11-19T11:20:34;100064.72;;;11.52;100.00
25759;BME280;13604;52.496;13.456;2023-11-19T11:26:18;100065.97;;;12.93;100.00
25759;BME280;13604;52.496;13.456;2023-11-19T11:28:54;100062.69;;;13.76;100.00
25759;BME280;13604;52.496;13.456;2023-11-19T11:36:57;100073.03;;;12.28;100.00
25759;BME280;13604;52.496;13.456;2023-11-19T11:39:28;100064.41;;;11.99;100.00
25759;BME280;13604;52.496;13.456;2023-11-19T11:50:11;100054.59;;;17.26;79.00
25759;BME280;13604;52.496;13.456;2023-11-19T11:55:24;100047.94;;;16.65;83.81
25759;BME280;13604;52.496;13.456;2023-11-19T11:57:50;100064.06;;;16.18;82.53
25759;BME280;13604;52.496;13.456;2023-11-19T12:00:31;100042.84;;;14.77;87.43
25759;BME280;13604;52.496;13.456;2023-11-19T12:02:59;100053.34;;;14.31;94.63
25759;BME280;13604;52.496;13.456;2023-11-19T12:05:25;100034.75;;;13.73;94.92
25759;BME280;13604;52.496;13.456;2023-11-19T12:07:59;100048.97;;;13.10;97.06
25759;BME280;13604;52.496;13.456;2023-11-19T12:10:26;100034.75;;;12.29;100.00
25759;BME280;13604;52.496;13.456;2023-11-19T12:12:59;100048.09;;;12.08;100.00
25759;BME280;13604;52.496;13.456;2023-11-19T12:15:25;100058.03;;;11.91;100.00
25759;BME280;13604;52.496;13.456;2023-11-19T12:17:54;100049.56;;;11.68;100.00
25759;BME280;13604;52.496;13.456;2023-11-19T12:20:22;100069.78;;;11.48;100.00
25759;BME280;13604;52.496;13.456;2023-11-19T12:22:48;100055.53;;;11.36;100.00
25759;BME280;13604;52.496;13.456;2023-11-19T12:25:15;100058.25;;;11.39;100.00
25759;BME280;13604;52.496;13.456;2023-11-19T12:27:46;100061.00;;;11.44;100.00
25759;BME280;13604;52.496;13.456;2023-11-19T12:30:12;100058.69;;;11.26;100.00
25759;BME280;13604;52.496;13.456;2023-11-19T12:32:41;100042.69;;;11.14;100.00
25759;BME280;13604;52.496;13.456;2023-11-19T12:35:08;100062.63;;;11.13;100.00
25759;BME280;13604;52.496;13.456;2023-11-19T12:37:39;100061.31;;;10.99;100.00
25759;BME280;13604;52.496;13.456;2023-11-19T12:40:11;100039.84;;;10.80;100.00
25759;BME280;13604;52.496;13.456;2023-11-19T12:42:38;100040.44;;;10.72;100.00
25759;BME280;13604;52.496;13.456;2023-11-19T12:45:04;100048.31;;;10.73;100.00
25759;BME280;13604;52.496;13.456;2023-11-19T12:47:29;100054.28;;;10.71;100.00
25759;BME280;13604;52.496;13.456;2023-11-19T12:49:58;100040.88;;;10.58;100.00
25759;BME280;13604;52.496;13.456;2023-11-19T12:52:23;100040.81;;;10.57;100.00